sensor_id;sensor_type;location;lat;lon;timestamp;P1;durP1;ratioP1;P2;durP2;ratioP2
13090;SDS011;6611;52.604;13.438;2023-04-09T00:03:32;27.27;;;15.90;;
13090;SDS011;6611;52.604;13.438;2023-04-09T00:08:35;26.27;;;15.80;;
13090;SDS011;6611;52.604;13.438;2023-04-09T00:13:37;26.10;;;16.53;;
13090;SDS011;6611;52.604;13.438;2023-04-09T00:18:38;23.30;;;14.63;;
13090;SDS011;6611;52.604;13.438;2023-04-09T00:23:41;30.53;;;16.43;;
13090;SDS011;6611;52.604;13.438;2023-04-09T00:28:43;35.53;;;19.40;;
13090;SDS011;6611;52.604;13.438;2023-04-09T00:33:45;58.67;;;28.63;;
13090;SDS011;6611;52.604;13.438;2023-04-09T00:38:50;69.77;;;35.87;;
13090;SDS011;6611;52.604;13.438;2023-04-09T00:43:54;66.47;;;31.23;;
13090;SDS011;6611;52.604;13.438;2023-04-09T00:48:56;60.00;;;29.23;;
13090;SDS011;6611;52.604;13.438;2023-04-09T00:53:59;64.47;;;29.83;;
13090;SDS011;6611;52.604;13.438;2023-04-09T00:59:01;56.83;;;26.90;;
13090;SDS011;6611;52.604;13.438;2023-04-09T01:04:02;42.40;;;20.87;;
13090;SDS011;6611;52.604;13.438;2023-04-09T01:09:08;39.47;;;21.80;;
13090;SDS011;6611;52.604;13.438;2023-04-09T01:14:20;34.37;;;19.93;;
13090;SDS011;6611;52.604;13.438;2023-04-09T01:19:33;35.90;;;20.43;;
13090;SDS011;6611;52.604;13.438;2023-04-09T01:24:48;31.83;;;18.10;;
13090;SDS011;6611;52.604;13.438;2023-04-09T01:30:05;34.97;;;19.07;;
13090;SDS011;6611;52.604;13.438;2023-04-09T01:35:09;33.37;;;19.43;;
13090;SDS011;6611;52.604;13.438;2023-04-09T01:40:11;34.37;;;18.37;;
13090;SDS011;6611;52.604;13.438;2023-04-09T01:45:14;30.43;;;17.20;;
13090;SDS011;6611;52.604;13.438;2023-04-09T01:50:16;28.23;;;16.07;;
13090;SDS011;6611;52.604;13.438;2023-04-09T01:55:18;28.13;;;15.73;;
13090;SDS011;6611;52.604;13.438;2023-04-09T02:00:21;26.13;;;16.13;;
13090;SDS011;6611;52.604;13.438;2023-04-09T02:05:24;28.73;;;16.97;;
13090;SDS011;6611;52.604;13.438;2023-04-09T02:10:29;28.27;;;16.43;;
13090;SDS011;6611;52.604;13.438;2023-04-09T02:15:35;28.33;;;16.47;;
13090;SDS011;6611;52.604;13.438;2023-04-09T02:20:38;36.30;;;17.03;;
13090;SDS011;6611;52.604;13.438;2023-04-09T02:25:40;32.13;;;17.13;;
13090;SDS011;6611;52.604;13.438;2023-04-09T02:30:43;33.70;;;15.77;;
13090;SDS011;6611;52.604;13.438;2023-04-09T02:35:45;27.97;;;16.53;;
13090;SDS011;6611;52.604;13.438;2023-04-09T02:40:47;33.67;;;17.77;;
13090;SDS011;6611;52.604;13.438;2023-04-09T02:45:50;32.50;;;16.80;;
13090;SDS011;6611;52.604;13.438;2023-04-09T02:50:52;26.00;;;14.30;;
13090;SDS011;6611;52.604;13.438;2023-04-09T02:55:53;29.57;;;14.67;;
13090;SDS011;6611;52.604;13.438;2023-04-09T03:00:56;23.83;;;14.03;;
13090;SDS011;6611;52.604;13.438;2023-04-09T03:05:58;24.93;;;13.70;;
13090;SDS011;6611;52.604;13.438;2023-04-09T03:11:00;25.83;;;14.37;;
13090;SDS011;6611;52.604;13.438;2023-04-09T03:16:03;27.97;;;14.90;;
13090;SDS011;6611;52.604;13.438;2023-04-09T03:21:05;27.20;;;14.50;;
13090;SDS011;6611;52.604;13.438;2023-04-09T03:26:07;27.63;;;14.40;;
13090;SDS011;6611;52.604;13.438;2023-04-09T03:31:11;27.30;;;14.30;;
13090;SDS011;6611;52.604;13.438;2023-04-09T03:36:13;32.93;;;16.80;;
13090;SDS011;6611;52.604;13.438;2023-04-09T03:41:15;30.93;;;16.53;;
13090;SDS011;6611;52.604;13.438;2023-04-09T03:46:18;27.17;;;15.23;;
13090;SDS011;6611;52.604;13.438;2023-04-09T03:51:20;30.90;;;15.73;;
13090;SDS011;6611;52.604;13.438;2023-04-09T03:56:22;33.57;;;17.10;;
13090;SDS011;6611;52.604;13.438;2023-04-09T04:01:25;31.83;;;17.07;;
13090;SDS011;6611;52.604;13.438;2023-04-09T04:06:26;32.57;;;16.10;;
13090;SDS011;6611;52.604;13.438;2023-04-09T04:11:28;36.77;;;18.67;;
13090;SDS011;6611;52.604;13.438;2023-04-09T04:16:31;35.83;;;17.97;;
13090;SDS011;6611;52.604;13.438;2023-04-09T04:21:33;33.73;;;17.53;;
13090;SDS011;6611;52.604;13.438;2023-04-09T04:26:34;36.07;;;16.87;;
13090;SDS011;6611;52.604;13.438;2023-04-09T04:31:37;30.77;;;17.13;;
13090;SDS011;6611;52.604;13.438;2023-04-09T04:36:39;36.13;;;17.63;;
13090;SDS011;6611;52.604;13.438;2023-04-09T04:41:41;38.43;;;17.30;;
13090;SDS011;6611;52.604;13.438;2023-04-09T04:46:44;36.13;;;17.00;;
13090;SDS011;6611;52.604;13.438;2023-04-09T04:51:45;41.10;;;18.43;;
13090;SDS011;6611;52.604;13.438;2023-04-09T04:56:47;35.67;;;18.33;;
13090;SDS011;6611;52.604;13.438;2023-04-09T05:01:50;34.70;;;17.53;;
13090;SDS011;6611;52.604;13.438;2023-04-09T05:06:52;34.20;;;17.43;;
13090;SDS011;6611;52.604;13.438;2023-04-09T05:11:53;43.03;;;19.83;;
13090;SDS011;6611;52.604;13.438;2023-04-09T05:16:57;33.30;;;17.47;;
13090;SDS011;6611;52.604;13.438;2023-04-09T05:21:59;34.30;;;17.73;;
13090;SDS011;6611;52.604;13.438;2023-04-09T05:27:00;30.07;;;17.03;;
13090;SDS011;6611;52.604;13.438;2023-04-09T05:32:03;31.93;;;16.83;;
13090;SDS011;6611;52.604;13.438;2023-04-09T05:37:05;32.63;;;16.53;;
13090;SDS011;6611;52.604;13.438;2023-04-09T05:42:07;22.60;;;13.70;;
13090;SDS011;6611;52.604;13.438;2023-04-09T05:47:10;24.67;;;13.80;;
13090;SDS011;6611;52.604;13.438;2023-04-09T05:52:12;27.80;;;14.40;;
13090;SDS011;6611;52.604;13.438;2023-04-09T05:57:15;27.37;;;13.63;;
13090;SDS011;6611;52.604;13.438;2023-04-09T06:02:18;27.00;;;13.53;;
13090;SDS011;6611;52.604;13.438;2023-04-09T06:07:19;24.37;;;13.60;;
13090;SDS011;6611;52.604;13.438;2023-04-09T06:12:21;26.40;;;14.50;;
13090;SDS011;6611;52.604;13.438;2023-04-09T06:17:24;24.57;;;14.60;;
13090;SDS011;6611;52.604;13.438;2023-04-09T06:22:26;26.37;;;14.17;;
13090;SDS011;6611;52.604;13.438;2023-04-09T06:27:27;23.40;;;14.53;;
13090;SDS011;6611;52.604;13.438;2023-04-09T06:32:30;25.33;;;13.63;;
13090;SDS011;6611;52.604;13.438;2023-04-09T06:37:32;21.33;;;12.73;;
13090;SDS011;6611;52.604;13.438;2023-04-09T06:42:34;27.13;;;15.10;;
13090;SDS011;6611;52.604;13.438;2023-04-09T06:47:38;23.43;;;13.97;;
13090;SDS011;6611;52.604;13.438;2023-04-09T06:52:39;23.83;;;13.00;;
13090;SDS011;6611;52.604;13.438;2023-04-09T06:57:41;24.50;;;13.80;;
13090;SDS011;6611;52.604;13.438;2023-04-09T07:02:44;20.50;;;11.83;;
13090;SDS011;6611;52.604;13.438;2023-04-09T07:07:46;21.00;;;12.17;;
13090;SDS011;6611;52.604;13.438;2023-04-09T07:12:47;22.10;;;12.23;;
13090;SDS011;6611;52.604;13.438;2023-04-09T07:17:50;20.67;;;11.47;;
13090;SDS011;6611;52.604;13.438;2023-04-09T07:22:52;19.47;;;12.27;;
13090;SDS011;6611;52.604;13.438;2023-04-09T07:27:54;21.40;;;12.27;;
13090;SDS011;6611;52.604;13.438;2023-04-09T07:32:57;21.10;;;12.57;;
13090;SDS011;6611;52.604;13.438;2023-04-09T07:37:59;22.77;;;12.47;;
13090;SDS011;6611;52.604;13.438;2023-04-09T07:43:00;21.13;;;12.37;;
13090;SDS011;6611;52.604;13.438;2023-04-09T07:48:04;25.37;;;12.50;;
13090;SDS011;6611;52.604;13.438;2023-04-09T07:53:07;23.37;;;12.43;;
13090;SDS011;6611;52.604;13.438;2023-04-09T07:58:09;19.90;;;11.37;;
13090;SDS011;6611;52.604;13.438;2023-04-09T08:03:12;25.53;;;13.60;;
13090;SDS011;6611;52.604;13.438;2023-04-09T08:08:14;25.60;;;13.57;;
13090;SDS011;6611;52.604;13.438;2023-04-09T08:13:16;24.57;;;13.20;;
13090;SDS011;6611;52.604;13.438;2023-04-09T08:18:19;23.67;;;12.37;;
13090;SDS011;6611;52.604;13.438;2023-04-09T08:23:20;24.37;;;12.93;;
13090;SDS011;6611;52.604;13.438;2023-04-09T08:28:22;21.20;;;12.13;;
13090;SDS011;6611;52.604;13.438;2023-04-09T08:33:25;26.47;;;13.57;;
13090;SDS011;6611;52.604;13.438;2023-04-09T08:38:27;25.73;;;13.80;;
13090;SDS011;6611;52.604;13.438;2023-04-09T08:43:29;24.70;;;13.00;;
13090;SDS011;6611;52.604;13.438;2023-04-09T08:48:34;25.00;;;13.30;;
13090;SDS011;6611;52.604;13.438;2023-04-09T08:53:35;20.97;;;12.63;;
13090;SDS011;6611;52.604;13.438;2023-04-09T08:58:39;22.30;;;12.50;;
13090;SDS011;6611;52.604;13.438;2023-04-09T09:03:56;20.33;;;11.63;;
13090;SDS011;6611;52.604;13.438;2023-04-09T09:09:03;24.83;;;12.47;;
13090;SDS011;6611;52.604;13.438;2023-04-09T09:14:07;20.37;;;10.90;;
13090;SDS011;6611;52.604;13.438;2023-04-09T09:19:26;18.87;;;10.73;;
13090;SDS011;6611;52.604;13.438;2023-04-09T09:24:29;19.47;;;10.97;;
13090;SDS011;6611;52.604;13.438;2023-04-09T09:29:34;22.43;;;12.30;;
13090;SDS011;6611;52.604;13.438;2023-04-09T09:34:42;21.17;;;11.63;;
13090;SDS011;6611;52.604;13.438;2023-04-09T09:39:58;21.80;;;12.73;;
13090;SDS011;6611;52.604;13.438;2023-04-09T09:45:00;22.30;;;11.83;;
13090;SDS011;6611;52.604;13.438;2023-04-09T09:50:18;21.87;;;10.90;;
13090;SDS011;6611;52.604;13.438;2023-04-09T09:55:23;22.37;;;11.20;;
13090;SDS011;6611;52.604;13.438;2023-04-09T10:00:28;21.70;;;11.83;;
13090;SDS011;6611;52.604;13.438;2023-04-09T10:05:33;19.43;;;11.20;;
13090;SDS011;6611;52.604;13.438;2023-04-09T10:10:38;20.10;;;10.97;;
13090;SDS011;6611;52.604;13.438;2023-04-09T10:15:42;20.03;;;10.67;;
13090;SDS011;6611;52.604;13.438;2023-04-09T10:20:47;17.17;;;10.20;;
13090;SDS011;6611;52.604;13.438;2023-04-09T10:25:55;15.73;;;9.80;;
13090;SDS011;6611;52.604;13.438;2023-04-09T10:30:56;16.53;;;9.93;;
13090;SDS011;6611;52.604;13.438;2023-04-09T10:36:00;16.57;;;9.77;;
13090;SDS011;6611;52.604;13.438;2023-04-09T10:41:08;18.20;;;10.07;;
13090;SDS011;6611;52.604;13.438;2023-04-09T10:46:26;16.70;;;10.13;;
13090;SDS011;6611;52.604;13.438;2023-04-09T10:51:34;18.77;;;9.77;;
13090;SDS011;6611;52.604;13.438;2023-04-09T10:56:37;19.37;;;10.37;;
13090;SDS011;6611;52.604;13.438;2023-04-09T11:01:39;17.60;;;10.30;;
13090;SDS011;6611;52.604;13.438;2023-04-09T11:06:42;16.47;;;9.67;;
13090;SDS011;6611;52.604;13.438;2023-04-09T11:11:50;17.13;;;9.80;;
13090;SDS011;6611;52.604;13.438;2023-04-09T11:16:53;18.07;;;9.33;;
13090;SDS011;6611;52.604;13.438;2023-04-09T11:21:56;17.20;;;9.97;;
13090;SDS011;6611;52.604;13.438;2023-04-09T11:26:57;16.23;;;9.97;;
13090;SDS011;6611;52.604;13.438;2023-04-09T11:32:02;21.97;;;10.60;;
13090;SDS011;6611;52.604;13.438;2023-04-09T11:37:06;18.63;;;11.03;;
13090;SDS011;6611;52.604;13.438;2023-04-09T11:42:15;18.73;;;10.73;;
13090;SDS011;6611;52.604;13.438;2023-04-09T11:47:17;17.33;;;10.17;;
13090;SDS011;6611;52.604;13.438;2023-04-09T11:52:21;19.30;;;10.83;;
13090;SDS011;6611;52.604;13.438;2023-04-09T11:57:23;19.13;;;10.33;;
13090;SDS011;6611;52.604;13.438;2023-04-09T12:02:24;18.83;;;11.13;;
13090;SDS011;6611;52.604;13.438;2023-04-09T12:07:31;15.70;;;9.87;;
13090;SDS011;6611;52.604;13.438;2023-04-09T12:12:40;19.73;;;11.20;;
13090;SDS011;6611;52.604;13.438;2023-04-09T12:17:42;17.13;;;10.43;;
13090;SDS011;6611;52.604;13.438;2023-04-09T12:22:45;20.83;;;11.73;;
13090;SDS011;6611;52.604;13.438;2023-04-09T12:27:47;16.10;;;9.57;;
13090;SDS011;6611;52.604;13.438;2023-04-09T12:32:48;17.10;;;10.47;;
13090;SDS011;6611;52.604;13.438;2023-04-09T12:37:52;17.97;;;11.23;;
13090;SDS011;6611;52.604;13.438;2023-04-09T12:42:54;16.97;;;9.87;;
13090;SDS011;6611;52.604;13.438;2023-04-09T12:47:55;16.10;;;10.53;;
13090;SDS011;6611;52.604;13.438;2023-04-09T12:52:58;18.03;;;11.50;;
13090;SDS011;6611;52.604;13.438;2023-04-09T12:58:00;18.57;;;10.57;;
13090;SDS011;6611;52.604;13.438;2023-04-09T13:03:02;18.07;;;11.10;;
13090;SDS011;6611;52.604;13.438;2023-04-09T13:08:05;19.27;;;10.40;;
13090;SDS011;6611;52.604;13.438;2023-04-09T13:13:07;18.97;;;11.97;;
13090;SDS011;6611;52.604;13.438;2023-04-09T13:18:11;17.10;;;10.43;;
13090;SDS011;6611;52.604;13.438;2023-04-09T13:23:15;14.20;;;9.43;;
13090;SDS011;6611;52.604;13.438;2023-04-09T13:28:16;14.63;;;8.93;;
13090;SDS011;6611;52.604;13.438;2023-04-09T13:33:18;16.20;;;9.97;;
13090;SDS011;6611;52.604;13.438;2023-04-09T13:38:21;14.93;;;10.17;;
13090;SDS011;6611;52.604;13.438;2023-04-09T13:43:23;17.13;;;9.73;;
13090;SDS011;6611;52.604;13.438;2023-04-09T13:48:27;14.90;;;9.57;;
13090;SDS011;6611;52.604;13.438;2023-04-09T13:53:30;15.90;;;10.07;;
13090;SDS011;6611;52.604;13.438;2023-04-09T13:58:31;16.57;;;9.73;;
13090;SDS011;6611;52.604;13.438;2023-04-09T14:03:33;18.03;;;10.70;;
13090;SDS011;6611;52.604;13.438;2023-04-09T14:08:38;15.50;;;9.93;;
13090;SDS011;6611;52.604;13.438;2023-04-09T14:13:40;13.23;;;9.43;;
13090;SDS011;6611;52.604;13.438;2023-04-09T14:18:42;16.13;;;9.63;;
13090;SDS011;6611;52.604;13.438;2023-04-09T14:23:45;12.63;;;9.00;;
13090;SDS011;6611;52.604;13.438;2023-04-09T14:28:47;17.63;;;9.77;;
13090;SDS011;6611;52.604;13.438;2023-04-09T14:33:49;14.23;;;9.40;;
13090;SDS011;6611;52.604;13.438;2023-04-09T14:38:52;15.73;;;10.10;;
13090;SDS011;6611;52.604;13.438;2023-04-09T14:43:53;14.07;;;10.00;;
13090;SDS011;6611;52.604;13.438;2023-04-09T14:48:55;13.17;;;9.27;;
13090;SDS011;6611;52.604;13.438;2023-04-09T14:53:58;13.00;;;9.10;;
13090;SDS011;6611;52.604;13.438;2023-04-09T14:59:00;12.83;;;8.63;;
13090;SDS011;6611;52.604;13.438;2023-04-09T15:04:02;13.97;;;8.37;;
13090;SDS011;6611;52.604;13.438;2023-04-09T15:09:05;12.87;;;9.27;;
13090;SDS011;6611;52.604;13.438;2023-04-09T15:14:07;15.47;;;9.30;;
13090;SDS011;6611;52.604;13.438;2023-04-09T15:19:08;12.40;;;8.40;;
13090;SDS011;6611;52.604;13.438;2023-04-09T15:24:11;13.57;;;8.97;;
13090;SDS011;6611;52.604;13.438;2023-04-09T15:29:13;11.07;;;8.30;;
13090;SDS011;6611;52.604;13.438;2023-04-09T15:34:15;14.10;;;9.03;;
13090;SDS011;6611;52.604;13.438;2023-04-09T15:39:18;12.60;;;8.43;;
13090;SDS011;6611;52.604;13.438;2023-04-09T15:44:20;11.43;;;8.23;;
13090;SDS011;6611;52.604;13.438;2023-04-09T15:49:21;10.43;;;7.57;;
13090;SDS011;6611;52.604;13.438;2023-04-09T15:54:25;15.03;;;7.90;;
13090;SDS011;6611;52.604;13.438;2023-04-09T15:59:26;12.03;;;8.23;;
13090;SDS011;6611;52.604;13.438;2023-04-09T16:04:28;12.90;;;8.90;;
13090;SDS011;6611;52.604;13.438;2023-04-09T16:09:31;12.53;;;8.80;;
13090;SDS011;6611;52.604;13.438;2023-04-09T16:14:33;13.63;;;9.17;;
13090;SDS011;6611;52.604;13.438;2023-04-09T16:19:34;13.53;;;9.07;;
13090;SDS011;6611;52.604;13.438;2023-04-09T16:24:37;12.30;;;8.13;;
13090;SDS011;6611;52.604;13.438;2023-04-09T16:29:39;11.93;;;7.87;;
13090;SDS011;6611;52.604;13.438;2023-04-09T16:34:41;12.73;;;8.27;;
13090;SDS011;6611;52.604;13.438;2023-04-09T16:39:44;13.20;;;8.10;;
13090;SDS011;6611;52.604;13.438;2023-04-09T16:44:46;12.07;;;8.80;;
13090;SDS011;6611;52.604;13.438;2023-04-09T16:49:47;12.40;;;8.57;;
13090;SDS011;6611;52.604;13.438;2023-04-09T16:54:50;12.40;;;8.17;;
13090;SDS011;6611;52.604;13.438;2023-04-09T16:59:52;13.57;;;8.93;;
13090;SDS011;6611;52.604;13.438;2023-04-09T17:04:54;14.40;;;9.30;;
13090;SDS011;6611;52.604;13.438;2023-04-09T17:09:57;15.93;;;9.40;;
13090;SDS011;6611;52.604;13.438;2023-04-09T17:14:59;13.87;;;9.23;;
13090;SDS011;6611;52.604;13.438;2023-04-09T17:20:00;13.90;;;9.63;;
13090;SDS011;6611;52.604;13.438;2023-04-09T17:25:05;16.13;;;9.90;;
13090;SDS011;6611;52.604;13.438;2023-04-09T17:30:08;15.70;;;11.33;;
13090;SDS011;6611;52.604;13.438;2023-04-09T17:35:10;17.37;;;10.90;;
13090;SDS011;6611;52.604;13.438;2023-04-09T17:40:13;16.00;;;10.60;;
13090;SDS011;6611;52.604;13.438;2023-04-09T17:45:17;19.20;;;12.30;;
13090;SDS011;6611;52.604;13.438;2023-04-09T17:50:19;17.73;;;11.60;;
13090;SDS011;6611;52.604;13.438;2023-04-09T17:55:22;17.13;;;10.73;;
13090;SDS011;6611;52.604;13.438;2023-04-09T18:00:24;18.93;;;11.30;;
13090;SDS011;6611;52.604;13.438;2023-04-09T18:05:26;17.13;;;10.63;;
13090;SDS011;6611;52.604;13.438;2023-04-09T18:10:29;17.33;;;11.20;;
13090;SDS011;6611;52.604;13.438;2023-04-09T18:15:31;17.70;;;11.43;;
13090;SDS011;6611;52.604;13.438;2023-04-09T18:20:33;16.43;;;11.10;;
13090;SDS011;6611;52.604;13.438;2023-04-09T18:25:36;17.70;;;11.13;;
13090;SDS011;6611;52.604;13.438;2023-04-09T18:30:37;16.17;;;10.53;;
13090;SDS011;6611;52.604;13.438;2023-04-09T18:35:40;21.27;;;12.37;;
13090;SDS011;6611;52.604;13.438;2023-04-09T18:40:44;17.00;;;11.50;;
13090;SDS011;6611;52.604;13.438;2023-04-09T18:45:45;22.10;;;12.73;;
13090;SDS011;6611;52.604;13.438;2023-04-09T18:50:48;15.40;;;11.50;;
13090;SDS011;6611;52.604;13.438;2023-04-09T18:55:51;19.20;;;13.10;;
13090;SDS011;6611;52.604;13.438;2023-04-09T19:00:53;22.60;;;12.50;;
13090;SDS011;6611;52.604;13.438;2023-04-09T19:05:55;20.70;;;13.20;;
13090;SDS011;6611;52.604;13.438;2023-04-09T19:11:00;19.93;;;13.50;;
13090;SDS011;6611;52.604;13.438;2023-04-09T19:16:02;21.53;;;13.37;;
13090;SDS011;6611;52.604;13.438;2023-04-09T19:21:04;22.70;;;14.83;;
13090;SDS011;6611;52.604;13.438;2023-04-09T19:26:09;21.77;;;14.10;;
13090;SDS011;6611;52.604;13.438;2023-04-09T19:31:10;19.37;;;14.10;;
13090;SDS011;6611;52.604;13.438;2023-04-09T19:36:13;20.30;;;13.87;;
13090;SDS011;6611;52.604;13.438;2023-04-09T19:41:16;22.80;;;14.17;;
13090;SDS011;6611;52.604;13.438;2023-04-09T19:46:18;24.37;;;14.97;;
13090;SDS011;6611;52.604;13.438;2023-04-09T19:51:20;22.53;;;15.97;;
13090;SDS011;6611;52.604;13.438;2023-04-09T19:56:23;26.07;;;15.43;;
13090;SDS011;6611;52.604;13.438;2023-04-09T20:01:24;27.37;;;17.10;;
13090;SDS011;6611;52.604;13.438;2023-04-09T20:06:27;30.33;;;19.47;;
13090;SDS011;6611;52.604;13.438;2023-04-09T20:11:31;32.07;;;17.67;;
13090;SDS011;6611;52.604;13.438;2023-04-09T20:16:32;33.20;;;19.90;;
13090;SDS011;6611;52.604;13.438;2023-04-09T20:21:34;32.90;;;20.13;;
13090;SDS011;6611;52.604;13.438;2023-04-09T20:26:37;32.23;;;20.10;;
13090;SDS011;6611;52.604;13.438;2023-04-09T20:31:39;32.30;;;19.97;;
13090;SDS011;6611;52.604;13.438;2023-04-09T20:36:41;28.47;;;18.80;;
13090;SDS011;6611;52.604;13.438;2023-04-09T20:41:44;29.97;;;19.30;;
13090;SDS011;6611;52.604;13.438;2023-04-09T20:46:46;33.00;;;19.40;;
13090;SDS011;6611;52.604;13.438;2023-04-09T20:51:47;32.67;;;21.10;;
13090;SDS011;6611;52.604;13.438;2023-04-09T20:56:52;35.47;;;23.03;;
13090;SDS011;6611;52.604;13.438;2023-04-09T21:01:54;41.17;;;24.30;;
13090;SDS011;6611;52.604;13.438;2023-04-09T21:06:56;36.23;;;23.40;;
13090;SDS011;6611;52.604;13.438;2023-04-09T21:11:59;41.83;;;24.73;;
13090;SDS011;6611;52.604;13.438;2023-04-09T21:17:01;36.97;;;23.67;;
13090;SDS011;6611;52.604;13.438;2023-04-09T21:22:03;33.67;;;23.73;;
13090;SDS011;6611;52.604;13.438;2023-04-09T21:27:06;41.63;;;24.60;;
13090;SDS011;6611;52.604;13.438;2023-04-09T21:32:08;40.47;;;22.57;;
13090;SDS011;6611;52.604;13.438;2023-04-09T21:37:09;35.17;;;20.70;;
13090;SDS011;6611;52.604;13.438;2023-04-09T21:42:12;32.00;;;20.57;;
13090;SDS011;6611;52.604;13.438;2023-04-09T21:47:14;34.53;;;20.07;;
13090;SDS011;6611;52.604;13.438;2023-04-09T21:52:16;26.93;;;17.30;;
13090;SDS011;6611;52.604;13.438;2023-04-09T21:57:19;26.93;;;17.90;;
13090;SDS011;6611;52.604;13.438;2023-04-09T22:02:21;30.20;;;16.17;;
13090;SDS011;6611;52.604;13.438;2023-04-09T22:07:23;25.20;;;16.50;;
13090;SDS011;6611;52.604;13.438;2023-04-09T22:12:27;27.00;;;17.57;;
13090;SDS011;6611;52.604;13.438;2023-04-09T22:17:28;28.93;;;17.17;;
13090;SDS011;6611;52.604;13.438;2023-04-09T22:22:30;26.53;;;17.10;;
13090;SDS011;6611;52.604;13.438;2023-04-09T22:27:33;26.40;;;15.70;;
13090;SDS011;6611;52.604;13.438;2023-04-09T22:32:35;22.07;;;14.30;;
13090;SDS011;6611;52.604;13.438;2023-04-09T22:37:37;22.83;;;14.47;;
13090;SDS011;6611;52.604;13.438;2023-04-09T22:42:40;20.90;;;13.67;;
13090;SDS011;6611;52.604;13.438;2023-04-09T22:47:42;20.63;;;13.30;;
13090;SDS011;6611;52.604;13.438;2023-04-09T22:52:44;21.00;;;13.33;;
13090;SDS011;6611;52.604;13.438;2023-04-09T22:57:47;22.47;;;13.07;;
13090;SDS011;6611;52.604;13.438;2023-04-09T23:02:48;17.60;;;11.63;;
13090;SDS011;6611;52.604;13.438;2023-04-09T23:07:50;20.90;;;12.70;;
13090;SDS011;6611;52.604;13.438;2023-04-09T23:12:53;20.73;;;13.03;;
13090;SDS011;6611;52.604;13.438;2023-04-09T23:17:55;24.77;;;13.20;;
13090;SDS011;6611;52.604;13.438;2023-04-09T23:22:56;25.27;;;13.50;;
13090;SDS011;6611;52.604;13.438;2023-04-09T23:27:59;21.13;;;12.87;;
13090;SDS011;6611;52.604;13.438;2023-04-09T23:33:01;21.03;;;12.67;;
13090;SDS011;6611;52.604;13.438;2023-04-09T23:38:03;18.70;;;12.07;;
13090;SDS011;6611;52.604;13.438;2023-04-09T23:43:06;19.73;;;12.17;;
13090;SDS011;6611;52.604;13.438;2023-04-09T23:48:09;21.80;;;11.83;;
13090;SDS011;6611;52.604;13.438;2023-04-09T23:53:11;17.40;;;12.33;;
13090;SDS011;6611;52.604;13.438;2023-04-09T23:58:14;18.63;;;11.33;;
